Time;durP1;ratioP1;P1;durP2;ratioP2;P2;SDS_P1;SDS_P2;PMS_P1;PMS_P2;Temp;Humidity;BMP_temperature;BMP_pressure;BME280_temperature;BME280_humidity;BME280_pressure;Samples;Min_cycle;Max_cycle;Signal;HPM_P1;HPM_P2
2023/03/31 00:01:47;;;;;;;2.45;2.25;;;12.00;99.90;;;;;;5008734;28;20887;-65
2023/03/31 00:04:13;;;;;;;6.77;2.20;;;11.90;99.90;;;;;;5008657;28;20193;-65
2023/03/31 00:06:41;;;;;;;14.73;2.90;;;11.70;99.90;;;;;;5005720;28;20195;-65
2023/03/31 00:09:12;;;;;;;4.32;1.90;;;11.90;99.90;;;;;;5008764;28;20186;-65
2023/03/31 00:11:39;;;;;;;5.30;2.60;;;11.80;99.90;;;;;;5007470;28;20209;-65
2023/03/31 00:14:06;;;;;;;5.18;2.10;;;11.80;99.90;;;;;;5008900;28;20211;-65
2023/03/31 00:16:33;;;;;;;5.43;2.53;;;11.70;99.90;;;;;;5008842;28;20756;-66
2023/03/31 00:19:00;;;;;;;4.90;2.10;;;12.20;99.90;;;;;;5006916;28;20201;-65
2023/03/31 00:21:33;;;;;;;2.92;2.50;;;12.00;99.90;;;;;;5004931;28;20659;-66
2023/03/31 00:24:01;;;;;;;4.30;2.40;;;11.80;99.90;;;;;;5009066;28;20193;-65
2023/03/31 00:26:27;;;;;;;5.43;2.22;;;11.80;99.90;;;;;;5005257;28;20193;-65
2023/03/31 00:28:53;;;;;;;4.15;2.30;;;11.60;99.90;;;;;;5009115;28;20183;-65
2023/03/31 00:31:19;;;;;;;3.40;2.00;;;11.70;99.90;;;;;;5009486;28;20202;-66
2023/03/31 00:33:45;;;;;;;2.88;2.28;;;11.70;99.90;;;;;;5005235;28;20605;-65
2023/03/31 00:36:11;;;;;;;3.23;2.10;;;11.70;99.90;;;;;;5005133;28;20183;-66
2023/03/31 00:38:36;;;;;;;5.87;2.17;;;11.80;99.90;;;;;;5007255;28;20179;-65
2023/03/31 00:41:02;;;;;;;2.70;1.60;;;11.60;99.90;;;;;;5005550;28;20290;-66
2023/03/31 00:43:35;;;;;;;3.10;2.28;;;11.60;99.90;;;;;;5009127;28;20190;-65
2023/03/31 00:46:16;;;;;;;2.30;1.85;;;11.90;99.90;;;;;;5008681;28;20189;-65
2023/03/31 00:48:52;;;;;;;8.80;2.53;;;12.00;99.90;;;;;;5008895;28;20229;-66
2023/03/31 00:51:21;;;;;;;5.38;2.10;;;12.10;99.90;;;;;;5005113;28;20202;-65
2023/03/31 00:53:56;;;;;;;4.55;1.77;;;12.10;99.90;;;;;;5006011;28;20202;-65
2023/03/31 00:56:22;;;;;;;4.00;2.00;;;12.20;99.90;;;;;;5003166;28;20167;-66
2023/03/31 00:58:49;;;;;;;4.53;2.20;;;12.20;99.90;;;;;;5008201;28;20188;-66
2023/03/31 01:01:23;;;;;;;4.03;2.08;;;12.00;99.90;;;;;;5007831;28;20276;-65
2023/03/31 01:03:49;;;;;;;4.47;2.22;;;12.20;99.90;;;;;;5009624;28;20273;-65
2023/03/31 01:06:18;;;;;;;4.22;2.33;;;11.90;99.90;;;;;;5011760;28;20202;-65
2023/03/31 01:08:48;;;;;;;3.28;1.70;;;12.10;99.90;;;;;;5012238;28;20179;-66
2023/03/31 01:11:18;;;;;;;8.25;2.67;;;12.20;99.90;;;;;;5010482;28;20293;-65
2023/03/31 01:13:44;;;;;;;1.70;1.60;;;12.20;99.90;;;;;;5012597;28;20210;-65
2023/03/31 01:16:11;;;;;;;2.38;2.00;;;12.20;99.90;;;;;;5012059;28;20175;-65
2023/03/31 01:18:38;;;;;;;5.35;1.92;;;12.40;99.90;;;;;;5008715;28;20190;-65
2023/03/31 01:21:36;;;;;;;3.13;1.60;;;12.30;99.90;;;;;;5010444;28;20900;-65
2023/03/31 01:24:13;;;;;;;3.20;1.98;;;12.50;99.90;;;;;;5010204;28;20214;-66
2023/03/31 01:26:52;;;;;;;3.65;2.05;;;12.40;99.90;;;;;;5008665;28;20210;-65
2023/03/31 01:29:39;;;;;;;5.20;2.03;;;12.40;99.90;;;;;;5026656;28;20178;-65
2023/03/31 01:32:23;;;;;;;2.90;2.05;;;12.40;99.90;;;;;;5011421;28;20587;-65
2023/03/31 01:35:07;;;;;;;6.32;2.03;;;12.50;99.90;;;;;;5009404;28;20197;-65
2023/03/31 01:37:48;;;;;;;3.75;2.22;;;12.40;99.90;;;;;;5009975;28;20183;-65
2023/03/31 01:40:32;;;;;;;6.95;2.38;;;12.40;99.90;;;;;;5010419;28;20225;-66
2023/03/31 01:43:05;;;;;;;2.97;1.63;;;12.20;99.90;;;;;;5010009;28;20229;-66
2023/03/31 01:46:02;;;;;;;2.70;2.03;;;12.40;99.90;;;;;;5026845;28;20250;-65
2023/03/31 01:48:51;;;;;;;4.75;2.75;;;12.30;99.90;;;;;;5011524;28;20645;-66
2023/03/31 01:51:34;;;;;;;3.90;1.90;;;12.30;99.90;;;;;;5008842;28;20688;-65
2023/03/31 01:54:00;;;;;;;5.20;2.20;;;12.50;99.90;;;;;;5015711;28;20655;-65
2023/03/31 01:56:39;;;;;;;2.83;2.17;;;12.40;99.90;;;;;;5010230;28;20183;-66
2023/03/31 01:59:21;;;;;;;2.58;2.00;;;12.30;99.90;;;;;;5010908;28;20183;-66
2023/03/31 02:02:18;;;;;;;5.43;2.10;;;12.30;99.90;;;;;;5011948;28;20230;-66
2023/03/31 02:04:52;;;;;;;4.85;2.45;;;12.70;99.90;;;;;;5010559;28;20550;-66
2023/03/31 02:07:23;;;;;;;3.83;1.80;;;12.50;99.90;;;;;;5007496;28;20633;-65
2023/03/31 02:09:55;;;;;;;5.18;2.20;;;12.80;99.90;;;;;;5011741;28;20206;-66
2023/03/31 02:12:24;;;;;;;3.17;1.70;;;12.70;99.90;;;;;;5007981;28;20199;-66
2023/03/31 02:14:53;;;;;;;4.05;1.95;;;12.80;99.90;;;;;;5010349;28;20647;-65
2023/03/31 02:17:29;;;;;;;4.50;2.30;;;12.90;99.90;;;;;;5006957;28;20183;-66
2023/03/31 02:19:58;;;;;;;3.38;1.83;;;12.90;99.90;;;;;;5006877;28;20269;-65
2023/03/31 02:22:26;;;;;;;3.47;1.85;;;12.80;99.90;;;;;;5010962;28;20207;-66
2023/03/31 02:24:53;;;;;;;3.25;2.47;;;12.80;99.90;;;;;;5042390;28;20688;-66
2023/03/31 02:27:27;;;;;;;2.92;2.13;;;13.00;99.90;;;;;;5007587;28;20195;-65
2023/03/31 02:29:53;;;;;;;5.22;2.00;;;12.80;99.90;;;;;;5012502;28;20182;-65
2023/03/31 02:32:28;;;;;;;3.88;2.20;;;12.80;99.90;;;;;;5011071;28;20257;-66
2023/03/31 02:34:54;;;;;;;3.75;2.20;;;12.90;99.90;;;;;;5007096;28;20190;-66
2023/03/31 02:37:21;;;;;;;4.25;2.30;;;12.80;99.90;;;;;;5009980;28;20186;-66
2023/03/31 02:39:49;;;;;;;2.88;2.08;;;12.80;99.90;;;;;;5006331;28;20237;-65
2023/03/31 02:42:16;;;;;;;4.45;1.85;;;12.80;99.90;;;;;;5007850;28;20282;-66
2023/03/31 02:44:41;;;;;;;3.67;2.10;;;12.90;99.90;;;;;;5010679;28;20256;-65
2023/03/31 02:47:11;;;;;;;2.13;1.67;;;12.70;99.90;;;;;;5010045;28;20191;-66
2023/03/31 02:49:40;;;;;;;3.15;2.08;;;12.80;99.90;;;;;;5038229;28;20469;-65
2023/03/31 02:52:24;;;;;;;5.22;2.15;;;12.80;99.90;;;;;;5004551;28;20233;-65
2023/03/31 02:54:56;;;;;;;3.25;1.67;;;12.80;99.90;;;;;;5010399;28;20293;-65
2023/03/31 02:57:32;;;;;;;2.70;2.05;;;12.90;99.90;;;;;;5017075;28;20249;-64
2023/03/31 03:00:26;;;;;;;4.55;1.75;;;12.80;99.90;;;;;;5009389;28;20194;-66
2023/03/31 03:03:04;;;;;;;3.95;2.90;;;12.80;99.90;;;;;;5009158;28;20187;-65
2023/03/31 03:05:57;;;;;;;3.08;2.60;;;12.80;99.90;;;;;;5022507;28;20187;-65
2023/03/31 03:08:54;;;;;;;3.08;2.20;;;13.00;99.90;;;;;;5008975;28;20182;-64
2023/03/31 03:11:41;;;;;;;2.25;2.05;;;12.90;99.90;;;;;;5006423;28;20322;-65
2023/03/31 03:14:22;;;;;;;3.95;2.35;;;12.90;99.90;;;;;;5009383;28;20211;-65
2023/03/31 03:17:01;;;;;;;5.05;2.00;;;12.60;99.90;;;;;;5006707;28;20569;-65
2023/03/31 03:19:26;;;;;;;4.25;2.47;;;12.40;99.90;;;;;;5005400;28;20476;-65
2023/03/31 03:21:53;;;;;;;2.23;2.13;;;12.50;99.90;;;;;;5008559;28;20207;-65
2023/03/31 03:24:21;;;;;;;2.70;2.00;;;12.60;99.90;;;;;;5009084;28;20183;-65
2023/03/31 03:26:47;;;;;;;5.10;2.60;;;12.60;99.90;;;;;;5003032;28;20194;-65
2023/03/31 03:29:13;;;;;;;4.67;2.50;;;12.40;99.90;;;;;;5008901;28;20187;-65
2023/03/31 03:31:41;;;;;;;2.55;2.00;;;12.30;99.90;;;;;;5007268;28;20305;-65
2023/03/31 03:34:08;;;;;;;4.20;2.20;;;12.30;99.90;;;;;;5008833;28;20213;-65
2023/03/31 03:36:36;;;;;;;3.22;2.05;;;12.40;99.90;;;;;;5007620;28;20187;-65
2023/03/31 03:39:03;;;;;;;4.82;2.20;;;12.20;99.90;;;;;;5007707;28;20270;-65
2023/03/31 03:41:28;;;;;;;3.95;2.60;;;12.20;99.90;;;;;;5006966;28;20222;-65
2023/03/31 03:43:54;;;;;;;3.90;3.00;;;12.10;99.90;;;;;;5008520;28;20229;-65
2023/03/31 03:46:20;;;;;;;3.27;2.33;;;12.10;99.90;;;;;;5008533;28;20449;-65
2023/03/31 03:48:45;;;;;;;4.27;2.30;;;11.80;99.90;;;;;;5008564;28;20287;-64
2023/03/31 03:51:11;;;;;;;5.30;2.70;;;12.00;99.90;;;;;;5003989;28;20209;-65
2023/03/31 03:53:37;;;;;;;6.37;2.60;;;11.80;99.90;;;;;;5008781;28;20306;-65
2023/03/31 03:56:02;;;;;;;5.80;3.10;;;12.00;99.90;;;;;;5007107;28;20191;-65
2023/03/31 03:58:28;;;;;;;6.13;2.90;;;12.10;99.90;;;;;;5007278;28;20186;-65
2023/03/31 04:00:55;;;;;;;5.13;2.30;;;12.00;99.90;;;;;;5006757;28;20198;-65
2023/03/31 04:03:21;;;;;;;5.00;2.58;;;12.00;99.90;;;;;;5007608;28;20449;-65
2023/03/31 04:05:50;;;;;;;3.13;2.20;;;11.70;99.90;;;;;;5007694;28;20438;-65
2023/03/31 04:08:17;;;;;;;3.85;2.65;;;11.80;99.90;;;;;;5008094;28;20476;-65
2023/03/31 04:10:48;;;;;;;4.88;2.97;;;11.90;99.90;;;;;;5006238;28;20201;-65
2023/03/31 04:13:14;;;;;;;4.45;3.00;;;11.60;99.90;;;;;;5007667;28;20225;-65
2023/03/31 04:15:40;;;;;;;3.72;2.67;;;11.70;99.90;;;;;;5008304;28;20277;-65
2023/03/31 04:18:09;;;;;;;3.63;2.75;;;11.70;99.90;;;;;;5007703;28;20193;-65
2023/03/31 04:20:36;;;;;;;4.85;2.85;;;11.50;99.90;;;;;;5005679;28;20702;-64
2023/03/31 04:23:04;;;;;;;7.85;3.80;;;11.50;99.90;;;;;;5008101;28;20197;-65
2023/03/31 04:25:30;;;;;;;7.30;3.17;;;11.60;99.90;;;;;;5007619;28;20199;-65
2023/03/31 04:27:56;;;;;;;4.05;2.80;;;11.50;99.90;;;;;;5007444;28;20190;-65
2023/03/31 04:30:24;;;;;;;7.33;3.30;;;11.50;99.90;;;;;;5006033;28;20191;-65
2023/03/31 04:32:51;;;;;;;4.07;3.13;;;11.60;99.90;;;;;;5008512;28;20220;-65
2023/03/31 04:35:19;;;;;;;8.25;3.95;;;11.50;99.90;;;;;;5005029;28;20237;-64
2023/03/31 04:37:48;;;;;;;6.70;3.70;;;11.50;99.90;;;;;;5010011;28;20197;-65
2023/03/31 04:40:17;;;;;;;5.10;4.40;;;11.50;99.90;;;;;;5009619;28;20193;-65
2023/03/31 04:42:44;;;;;;;5.32;3.55;;;11.60;99.90;;;;;;5010361;28;20204;-65
2023/03/31 04:45:11;;;;;;;3.17;2.75;;;11.80;99.90;;;;;;5012982;28;20189;-65
2023/03/31 04:47:37;;;;;;;3.95;3.42;;;11.60;99.90;;;;;;5012395;28;20186;-66
2023/03/31 04:50:03;;;;;;;3.40;3.05;;;11.70;99.90;;;;;;5011472;28;20597;-65
2023/03/31 04:52:29;;;;;;;4.13;3.08;;;11.70;99.90;;;;;;5012140;28;20694;-65
2023/03/31 04:54:54;;;;;;;4.70;4.30;;;11.70;99.90;;;;;;5012902;28;20198;-65
2023/03/31 04:57:20;;;;;;;5.30;3.57;;;11.60;99.90;;;;;;5022157;28;20322;-65
2023/03/31 04:59:46;;;;;;;6.67;3.83;;;11.80;99.90;;;;;;5010963;28;20245;-65
2023/03/31 05:02:11;;;;;;;5.27;3.50;;;11.60;99.90;;;;;;5012268;28;20210;-65
2023/03/31 05:04:37;;;;;;;6.23;3.90;;;11.70;99.90;;;;;;5008682;28;20229;-65
2023/03/31 05:07:04;;;;;;;6.40;2.93;;;12.00;99.90;;;;;;5011311;28;20185;-65
2023/03/31 05:09:29;;;;;;;4.60;3.83;;;11.90;99.90;;;;;;5009146;28;20795;-64
2023/03/31 05:11:56;;;;;;;7.03;4.00;;;11.80;99.90;;;;;;5010998;28;20205;-65
2023/03/31 05:14:22;;;;;;;5.60;3.70;;;11.80;99.90;;;;;;5010898;28;20800;-65
2023/03/31 05:16:47;;;;;;;4.03;3.30;;;11.90;99.90;;;;;;5012791;28;20216;-65
2023/03/31 05:19:13;;;;;;;5.97;4.17;;;11.90;99.90;;;;;;5009109;28;20179;-65
2023/03/31 05:21:39;;;;;;;5.87;4.40;;;11.70;99.90;;;;;;5010667;28;20377;-65
2023/03/31 05:24:05;;;;;;;5.50;4.10;;;12.00;99.90;;;;;;5011732;28;20206;-65
2023/03/31 05:26:30;;;;;;;7.80;3.87;;;11.60;99.90;;;;;;5009535;28;20632;-65
2023/03/31 05:28:56;;;;;;;5.77;4.40;;;11.50;99.90;;;;;;5011761;28;20451;-65
2023/03/31 05:31:22;;;;;;;7.40;4.00;;;11.60;99.90;;;;;;5010914;28;20202;-65
2023/03/31 05:33:47;;;;;;;5.30;4.00;;;11.30;99.90;;;;;;5011364;28;20325;-65
2023/03/31 05:36:15;;;;;;;4.80;4.10;;;11.20;99.90;;;;;;5008962;28;20204;-65
2023/03/31 05:38:42;;;;;;;9.82;4.57;;;11.30;99.90;;;;;;5010833;28;20718;-65
2023/03/31 05:41:09;;;;;;;7.88;5.53;;;11.30;99.90;;;;;;5009689;28;20253;-65
2023/03/31 05:43:36;;;;;;;9.77;4.70;;;11.20;99.90;;;;;;5042087;28;20659;-65
2023/03/31 05:46:02;;;;;;;9.75;4.38;;;11.60;99.90;;;;;;5010973;28;20273;-65
2023/03/31 05:48:28;;;;;;;6.60;4.45;;;11.30;99.90;;;;;;5010346;28;20208;-65
2023/03/31 05:50:58;;;;;;;7.17;4.83;;;11.20;99.90;;;;;;5006312;28;20208;-65
2023/03/31 05:53:25;;;;;;;5.97;4.10;;;11.30;99.90;;;;;;5009454;28;20206;-65
2023/03/31 05:55:57;;;;;;;7.15;5.25;;;11.20;99.90;;;;;;5009600;28;20804;-66
2023/03/31 05:58:23;;;;;;;7.63;4.93;;;11.30;99.90;;;;;;5011186;28;20198;-65
2023/03/31 06:00:48;;;;;;;10.53;5.60;;;11.40;99.90;;;;;;5008846;28;20213;-65
2023/03/31 06:03:14;;;;;;;8.90;6.50;;;11.50;99.90;;;;;;5010896;28;20230;-66
2023/03/31 06:05:46;;;;;;;8.63;5.30;;;11.40;99.90;;;;;;5013435;28;20201;-65
2023/03/31 06:08:11;;;;;;;14.13;11.05;;;11.60;99.90;;;;;;5008676;28;20207;-65
2023/03/31 06:10:37;;;;;;;43.03;22.60;;;11.50;99.90;;;;;;5008443;28;20191;-65
2023/03/31 06:13:03;;;;;;;11.63;7.77;;;11.50;99.90;;;;;;5006657;28;20223;-66
2023/03/31 06:15:28;;;;;;;22.97;12.67;;;11.10;99.90;;;;;;5007901;28;20452;-64
2023/03/31 06:17:54;;;;;;;14.10;9.53;;;11.50;99.90;;;;;;5009390;28;20201;-65
2023/03/31 06:20:20;;;;;;;32.60;15.93;;;11.50;99.90;;;;;;5009496;28;20201;-65
2023/03/31 06:22:45;;;;;;;13.83;9.10;;;11.40;99.90;;;;;;5006788;28;20206;-65
2023/03/31 06:25:11;;;;;;;8.37;6.00;;;11.30;99.90;;;;;;5009765;28;20217;-64
2023/03/31 06:27:36;;;;;;;83.67;39.93;;;11.10;99.90;;;;;;5006531;28;20253;-63
2023/03/31 06:30:02;;;;;;;31.63;16.80;;;11.20;99.90;;;;;;5008544;28;20179;-66
2023/03/31 06:32:28;;;;;;;76.15;37.88;;;11.20;99.90;;;;;;5008660;28;20202;-66
2023/03/31 06:34:54;;;;;;;9.40;6.20;;;11.00;99.90;;;;;;5007390;28;20224;-66
2023/03/31 06:37:19;;;;;;;14.10;6.33;;;11.00;99.90;;;;;;5004131;28;20185;-66
2023/03/31 06:39:45;;;;;;;9.07;5.70;;;11.20;99.90;;;;;;5007732;28;20685;-66
2023/03/31 06:42:10;;;;;;;7.50;6.57;;;10.80;99.90;;;;;;5007200;28;20583;-66
2023/03/31 06:44:36;;;;;;;9.70;7.70;;;11.20;99.90;;;;;;5007593;28;20268;-66
2023/03/31 06:47:02;;;;;;;11.67;7.03;;;11.20;99.90;;;;;;5007970;28;20192;-66
2023/03/31 06:49:27;;;;;;;12.80;10.03;;;11.10;99.90;;;;;;5005839;28;20256;-66
2023/03/31 06:51:53;;;;;;;13.00;8.60;;;11.30;99.90;;;;;;5010500;28;20729;-66
2023/03/31 06:54:19;;;;;;;10.30;7.40;;;11.00;99.90;;;;;;5011524;28;20214;-67
2023/03/31 06:56:44;;;;;;;6.60;5.77;;;11.20;99.90;;;;;;5004594;28;20189;-66
2023/03/31 06:59:10;;;;;;;6.67;5.97;;;11.20;99.90;;;;;;5008071;28;20187;-66
2023/03/31 07:01:37;;;;;;;9.87;7.17;;;11.30;99.90;;;;;;5006016;28;20201;-67
2023/03/31 07:04:03;;;;;;;6.75;5.53;;;11.10;99.90;;;;;;5009052;28;21015;-67
2023/03/31 07:06:29;;;;;;;6.15;5.55;;;11.20;99.90;;;;;;5003069;28;20186;-66
2023/03/31 07:08:55;;;;;;;11.45;7.47;;;11.30;99.90;;;;;;5007120;28;20345;-67
2023/03/31 07:11:21;;;;;;;7.60;5.50;;;11.20;99.90;;;;;;5002829;28;20300;-64
2023/03/31 07:13:47;;;;;;;9.77;6.27;;;11.40;99.90;;;;;;5004650;28;20473;-64
2023/03/31 07:16:13;;;;;;;8.60;5.00;;;11.10;99.90;;;;;;5006541;28;20648;-64
2023/03/31 07:18:40;;;;;;;4.60;4.20;;;11.20;99.90;;;;;;5008840;28;20190;-63
2023/03/31 07:21:07;;;;;;;6.93;4.00;;;11.30;99.90;;;;;;5005316;28;20475;-74
2023/03/31 07:23:33;;;;;;;3.53;3.22;;;11.20;99.90;;;;;;5008666;28;20284;-73
2023/03/31 07:26:01;;;;;;;4.68;3.50;;;11.10;99.90;;;;;;5009512;28;20786;-74
2023/03/31 07:28:28;;;;;;;5.28;3.00;;;11.40;99.90;;;;;;5006781;28;20194;-68
2023/03/31 07:30:53;;;;;;;3.60;3.05;;;11.30;99.90;;;;;;5006570;28;20207;-68
2023/03/31 07:33:19;;;;;;;4.83;2.53;;;11.30;99.90;;;;;;5002072;28;20698;-69
2023/03/31 07:35:45;;;;;;;4.00;2.70;;;11.40;99.90;;;;;;5022139;28;20232;-68
2023/03/31 07:38:11;;;;;;;2.60;2.30;;;11.50;99.90;;;;;;5009132;28;20189;-68
2023/03/31 07:40:38;;;;;;;5.47;2.90;;;12.30;99.90;;;;;;5005667;28;20269;-68
2023/03/31 07:43:05;;;;;;;2.90;1.90;;;12.40;99.90;;;;;;5004041;28;20257;-68
2023/03/31 07:45:31;;;;;;;2.70;2.42;;;13.30;99.90;;;;;;5005569;28;20186;-66
2023/03/31 07:47:56;;;;;;;1.90;1.70;;;14.60;99.90;;;;;;5007070;28;20660;-68
2023/03/31 07:50:22;;;;;;;2.33;1.80;;;16.40;99.90;;;;;;5005175;28;20245;-68
2023/03/31 07:52:50;;;;;;;2.70;1.90;;;17.80;97.80;;;;;;5005761;28;20293;-69
2023/03/31 07:55:16;;;;;;;1.40;1.30;;;18.00;95.70;;;;;;5008409;28;20907;-71
2023/03/31 07:57:44;;;;;;;2.47;2.17;;;18.20;94.60;;;;;;5004846;28;20183;-70
2023/03/31 08:00:11;;;;;;;2.05;1.15;;;18.70;92.90;;;;;;5008701;28;20564;-72
2023/03/31 08:02:38;;;;;;;1.60;1.40;;;18.20;92.90;;;;;;5006137;28;20297;-72
2023/03/31 08:05:06;;;;;;;1.88;1.38;;;17.20;94.60;;;;;;5008436;28;20231;-77
2023/03/31 08:07:36;;;;;;;2.65;1.20;;;17.60;94.80;;;;;;5010971;28;20244;-76
2023/03/31 08:10:05;;;;;;;1.30;1.00;;;17.90;94.30;;;;;;5006826;28;20277;-77
2023/03/31 08:12:30;;;;;;;1.33;1.17;;;18.70;93.70;;;;;;5006284;28;20257;-77
2023/03/31 08:14:56;;;;;;;1.47;1.30;;;19.70;91.70;;;;;;5009286;28;20964;-75
2023/03/31 08:17:22;;;;;;;1.30;1.20;;;20.60;90.00;;;;;;5006673;28;20179;-73
2023/03/31 08:19:48;;;;;;;1.63;1.13;;;21.30;86.50;;;;;;5038155;28;20217;-73
2023/03/31 08:22:14;;;;;;;1.43;1.33;;;21.90;84.20;;;;;;5006461;28;20200;-75
2023/03/31 08:24:39;;;;;;;1.20;1.10;;;22.50;83.50;;;;;;5009879;28;20465;-74
2023/03/31 08:27:05;;;;;;;2.27;1.20;;;22.80;80.80;;;;;;5011907;28;20272;-74
2023/03/31 08:29:31;;;;;;;9.90;2.43;;;22.90;79.70;;;;;;5007703;28;20192;-74
2023/03/31 08:31:56;;;;;;;1.70;1.33;;;23.50;79.70;;;;;;5008574;28;20305;-73
2023/03/31 08:34:22;;;;;;;1.77;1.27;;;23.90;76.30;;;;;;5006898;28;20267;-74
2023/03/31 08:36:47;;;;;;;1.50;1.40;;;24.20;74.70;;;;;;5007607;28;20648;-74
2023/03/31 08:39:13;;;;;;;1.90;1.27;;;25.10;73.30;;;;;;5037847;28;20615;-73
2023/03/31 08:41:59;;;;;;;1.27;0.90;;;24.90;72.30;;;;;;5005783;28;20286;-72
2023/03/31 08:44:28;;;;;;;1.80;1.37;;;25.10;70.70;;;;;;5004598;28;20661;-74
2023/03/31 08:46:56;;;;;;;2.53;1.60;;;25.70;70.80;;;;;;5006995;28;20435;-73
2023/03/31 08:49:23;;;;;;;1.97;1.87;;;25.50;67.40;;;;;;5007233;28;20537;-71
2023/03/31 08:52:01;;;;;;;2.53;2.20;;;25.70;66.00;;;;;;5008531;28;20477;-72
2023/03/31 08:54:44;;;;;;;1.93;1.57;;;25.10;67.00;;;;;;5006893;28;20499;-72
2023/03/31 08:57:18;;;;;;;3.80;2.37;;;25.10;68.70;;;;;;5006096;28;20509;-73
2023/03/31 08:59:45;;;;;;;5.77;5.30;;;25.60;66.40;;;;;;5008476;28;20446;-71
2023/03/31 09:02:19;;;;;;;2.40;1.90;;;25.50;66.10;;;;;;5006449;28;20509;-72
2023/03/31 09:04:52;;;;;;;2.97;1.47;;;24.80;67.80;;;;;;5009229;28;20449;-73
2023/03/31 09:07:37;;;;;;;2.03;1.20;;;24.60;67.50;;;;;;5018640;28;20801;-72
2023/03/31 09:10:34;;;;;;;3.00;1.60;;;23.50;69.10;;;;;;5007568;28;21501;-72
2023/03/31 09:13:15;;;;;;;2.60;1.23;;;23.50;71.10;;;;;;5006772;28;20550;-73
2023/03/31 09:15:58;;;;;;;3.10;1.60;;;23.10;72.30;;;;;;5005396;28;20450;-72
2023/03/31 09:18:27;;;;;;;3.17;1.70;;;22.60;72.30;;;;;;5005318;28;20434;-71
2023/03/31 09:20:58;;;;;;;1.87;1.20;;;22.50;71.70;;;;;;5006407;28;20458;-75
2023/03/31 09:23:26;;;;;;;1.60;1.20;;;22.60;69.60;;;;;;5008912;28;20460;-76
2023/03/31 09:25:54;;;;;;;2.30;1.20;;;22.80;70.00;;;;;;5008467;28;20449;-71
2023/03/31 09:28:36;;;;;;;2.60;1.53;;;23.10;68.10;;;;;;5007879;28;20446;-71
2023/03/31 09:31:12;;;;;;;2.97;1.60;;;22.70;67.60;;;;;;5008794;28;20573;-72
2023/03/31 09:33:46;;;;;;;2.73;1.53;;;22.50;67.70;;;;;;5011697;28;20482;-71
2023/03/31 09:36:17;;;;;;;1.17;1.00;;;22.10;66.10;;;;;;5008626;28;20461;-69
2023/03/31 09:38:46;;;;;;;2.25;1.70;;;20.80;68.90;;;;;;5011057;28;20444;-70
2023/03/31 09:41:14;;;;;;;2.40;1.13;;;20.00;72.70;;;;;;5011090;28;20214;-69
2023/03/31 09:43:42;;;;;;;2.42;1.38;;;19.10;75.30;;;;;;5010572;28;20214;-69
2023/03/31 09:46:33;;;;;;;2.28;1.40;;;18.70;78.60;;;;;;5009194;28;20183;-67
2023/03/31 09:49:16;;;;;;;7.18;5.72;;;17.90;81.40;;;;;;5008749;28;20199;-66
2023/03/31 09:51:46;;;;;;;8.23;7.47;;;17.60;83.00;;;;;;5009937;28;20214;-66
2023/03/31 09:54:11;;;;;;;6.85;1.83;;;17.50;83.80;;;;;;5005820;28;20615;-67
2023/03/31 09:56:47;;;;;;;2.30;1.57;;;18.10;82.00;;;;;;5003381;28;20225;-68
2023/03/31 09:59:16;;;;;;;4.68;2.80;;;19.40;80.90;;;;;;5007868;28;20710;-67
2023/03/31 10:01:44;;;;;;;2.08;1.20;;;19.90;77.50;;;;;;5009526;28;20298;-67
2023/03/31 10:04:18;;;;;;;3.47;2.87;;;20.20;74.40;;;;;;5007105;28;20198;-68
2023/03/31 10:06:44;;;;;;;2.20;1.33;;;20.60;72.40;;;;;;5040205;28;20897;-67
2023/03/31 10:09:11;;;;;;;3.57;1.63;;;20.30;70.90;;;;;;5009279;28;20503;-67
2023/03/31 10:11:37;;;;;;;2.33;1.80;;;20.90;68.70;;;;;;5006587;28;20477;-67
2023/03/31 10:14:13;;;;;;;2.70;1.70;;;21.30;69.10;;;;;;5009326;28;20466;-68
2023/03/31 10:16:52;;;;;;;4.70;4.30;;;21.80;67.00;;;;;;5008169;28;20449;-67
2023/03/31 10:19:20;;;;;;;4.53;1.73;;;21.70;66.20;;;;;;5007457;28;20439;-66
2023/03/31 10:21:48;;;;;;;3.40;1.63;;;22.00;66.40;;;;;;5010639;28;20595;-67
2023/03/31 10:24:18;;;;;;;3.93;1.60;;;22.00;65.30;;;;;;5009749;28;20517;-66
2023/03/31 10:26:52;;;;;;;3.03;1.20;;;21.80;64.10;;;;;;5005588;28;20446;-66
2023/03/31 10:29:24;;;;;;;4.80;2.63;;;21.30;64.80;;;;;;5004198;28;20446;-67
2023/03/31 10:31:50;;;;;;;3.13;1.73;;;21.30;67.30;;;;;;5008381;28;20916;-67
2023/03/31 10:34:17;;;;;;;3.53;2.13;;;21.10;65.70;;;;;;5006076;28;20565;-67
2023/03/31 10:36:47;;;;;;;2.57;1.00;;;21.30;64.80;;;;;;5009852;28;20469;-67
2023/03/31 10:39:16;;;;;;;1.67;1.48;;;20.90;64.60;;;;;;5009447;28;20430;-67
2023/03/31 10:41:42;;;;;;;4.15;2.42;;;20.10;64.30;;;;;;5008220;28;20216;-67
2023/03/31 10:44:39;;;;;;;2.95;1.38;;;19.30;67.20;;;;;;5009435;28;20198;-66
2023/03/31 10:47:14;;;;;;;3.78;1.80;;;19.00;68.80;;;;;;5006771;28;20199;-66
2023/03/31 10:49:42;;;;;;;2.05;1.60;;;18.90;69.00;;;;;;5008326;28;20662;-66
2023/03/31 10:52:22;;;;;;;2.13;1.50;;;19.00;69.10;;;;;;5005446;28;20258;-66
2023/03/31 10:54:55;;;;;;;2.45;1.50;;;18.60;69.40;;;;;;5007460;28;20296;-66
2023/03/31 10:57:34;;;;;;;2.17;1.35;;;18.70;69.50;;;;;;5003899;28;20220;-66
2023/03/31 11:00:12;;;;;;;2.35;1.38;;;18.70;69.90;;;;;;5010058;28;20668;-66
2023/03/31 11:03:10;;;;;;;3.85;1.10;;;18.60;67.10;;;;;;5007684;28;20210;-66
2023/03/31 11:05:42;;;;;;;1.55;1.00;;;18.50;65.70;;;;;;5005439;28;20284;-66
2023/03/31 11:08:11;;;;;;;3.35;1.20;;;18.20;66.70;;;;;;5008638;28;20175;-66
2023/03/31 11:10:57;;;;;;;1.50;1.17;;;17.80;67.70;;;;;;5007338;28;20201;-66
2023/03/31 11:13:56;;;;;;;4.38;1.17;;;17.60;68.70;;;;;;5006672;28;20582;-66
2023/03/31 11:16:34;;;;;;;3.17;1.25;;;17.60;70.30;;;;;;5006234;28;20298;-66
2023/03/31 11:19:16;;;;;;;2.17;1.35;;;17.30;72.80;;;;;;5008052;28;20885;-66
2023/03/31 11:21:56;;;;;;;3.15;1.70;;;17.50;77.00;;;;;;5001763;28;20301;-68
2023/03/31 11:25:05;;;;;;;3.67;1.10;;;16.80;80.70;;;;;;5005441;28;20345;-67
2023/03/31 11:28:06;;;;;;;4.75;0.90;;;15.70;92.00;;;;;;5000271;28;20214;-67
2023/03/31 11:30:41;;;;;;;1.35;0.60;;;13.60;98.40;;;;;;5020112;28;20187;-67
2023/03/31 11:33:23;;;;;;;0.80;0.60;;;13.40;98.50;;;;;;5007446;28;20221;-64
2023/03/31 11:36:13;;;;;;;1.80;1.30;;;12.70;99.50;;;;;;5007144;28;20187;-64
2023/03/31 11:38:49;;;;;;;0.80;0.70;;;12.50;99.90;;;;;;5002281;28;20191;-63
2023/03/31 11:41:21;;;;;;;3.80;0.80;;;12.30;99.90;;;;;;5007564;28;20202;-64
2023/03/31 11:44:01;;;;;;;1.80;0.60;;;12.30;99.90;;;;;;5005102;28;20313;-63
2023/03/31 11:46:36;;;;;;;1.38;0.88;;;12.30;99.90;;;;;;5006211;28;20269;-63
2023/03/31 11:49:24;;;;;;;0.70;0.50;;;12.10;99.90;;;;;;5008550;28;20201;-63
2023/03/31 11:51:55;;;;;;;3.00;0.77;;;12.00;99.90;;;;;;5008411;28;20210;-64
2023/03/31 11:55:04;;;;;;;1.58;0.70;;;12.10;99.90;;;;;;5007802;28;20209;-64
2023/03/31 11:57:32;;;;;;;1.17;0.60;;;11.90;99.90;;;;;;5006496;28;20738;-64
2023/03/31 12:00:05;;;;;;;1.35;0.68;;;11.90;99.90;;;;;;5021581;28;20179;-64
2023/03/31 12:02:52;;;;;;;1.52;0.80;;;12.40;99.90;;;;;;5006783;28;20206;-64
2023/03/31 12:05:21;;;;;;;1.25;0.80;;;12.60;99.90;;;;;;5004350;28;20194;-66
2023/03/31 12:07:49;;;;;;;0.95;0.80;;;13.50;99.90;;;;;;4998637;28;20188;-69
2023/03/31 12:10:28;;;;;;;2.80;1.60;;;13.60;99.90;;;;;;5003685;28;21203;-70
2023/03/31 12:13:35;;;;;;;3.45;0.93;;;14.30;97.80;;;;;;5007174;28;20193;-66
2023/03/31 12:16:04;;;;;;;0.80;0.70;;;15.30;97.80;;;;;;5004786;28;20273;-65
2023/03/31 12:18:36;;;;;;;0.90;0.68;;;15.60;95.90;;;;;;5006083;28;20179;-65
2023/03/31 12:21:04;;;;;;;1.08;0.82;;;15.20;94.70;;;;;;5005892;28;20202;-65
2023/03/31 12:23:37;;;;;;;1.20;0.60;;;15.10;95.00;;;;;;5009394;28;20190;-67
2023/03/31 12:26:35;;;;;;;2.00;0.80;;;15.00;95.70;;;;;;5007579;28;20190;-65
2023/03/31 12:29:30;;;;;;;0.90;0.60;;;14.80;95.10;;;;;;5020689;28;20237;-65
2023/03/31 12:32:00;;;;;;;1.00;0.90;;;14.90;94.70;;;;;;5012344;28;20272;-65
2023/03/31 12:34:28;;;;;;;0.95;0.70;;;15.20;93.70;;;;;;5009242;28;20214;-65
2023/03/31 12:37:20;;;;;;;1.20;1.00;;;15.00;93.70;;;;;;5005010;28;20204;-65
2023/03/31 12:40:20;;;;;;;0.90;0.75;;;15.30;93.70;;;;;;5008085;28;20561;-64
2023/03/31 12:42:46;;;;;;;1.70;0.60;;;15.50;93.10;;;;;;5007417;28;20206;-65
2023/03/31 12:45:24;;;;;;;1.00;0.80;;;15.20;93.10;;;;;;5007845;28;20206;-65
2023/03/31 12:47:58;;;;;;;1.17;0.90;;;15.20;92.80;;;;;;5009369;28;20592;-66
2023/03/31 12:50:30;;;;;;;2.05;0.90;;;15.50;93.00;;;;;;5002409;28;20184;-67
2023/03/31 12:53:15;;;;;;;1.10;0.70;;;15.40;92.70;;;;;;5001991;28;20186;-68
2023/03/31 12:55:53;;;;;;;1.90;0.82;;;15.20;92.70;;;;;;5004748;28;20265;-67
2023/03/31 12:58:21;;;;;;;0.90;0.75;;;15.20;92.30;;;;;;5008450;28;20185;-67
2023/03/31 13:01:16;;;;;;;1.10;0.73;;;15.40;93.00;;;;;;5011352;28;20201;-65
2023/03/31 13:03:41;;;;;;;1.33;0.70;;;15.50;92.40;;;;;;5012393;28;20243;-66
2023/03/31 13:06:30;;;;;;;2.23;0.80;;;15.70;91.60;;;;;;5007695;28;20206;-66
2023/03/31 13:09:01;;;;;;;2.88;1.10;;;15.70;91.20;;;;;;5012856;28;20281;-66